createdAt,value
2018-01-02T00:00:04.847Z,91
2018-01-02T00:01:05.383Z,91
2018-01-02T00:02:05.292Z,91
2018-01-02T00:03:04.642Z,91
2018-01-02T00:04:05.337Z,91
2018-01-02T00:05:04.885Z,91
2018-01-02T00:06:05.610Z,91
2018-01-02T00:07:04.867Z,91
2018-01-02T00:08:05.094Z,91
2018-01-02T00:09:04.816Z,92
2018-01-02T00:10:05.379Z,92
2018-01-02T00:11:02.614Z,92
2018-01-02T00:12:04.874Z,92
2018-01-02T00:13:05.182Z,92
2018-01-02T00:14:09.875Z,92
2018-01-02T00:15:04.840Z,91
2018-01-02T00:16:04.834Z,91
2018-01-02T00:17:02.812Z,91
2018-01-02T00:18:05.203Z,91
2018-01-02T00:19:04.902Z,91
2018-01-02T00:20:04.851Z,91
2018-01-02T00:21:05.092Z,91
2018-01-02T00:22:04.726Z,91
2018-01-02T00:23:05.193Z,91
2018-01-02T00:24:05.127Z,91
2018-01-02T00:25:04.866Z,91
2018-01-02T00:26:04.842Z,91
2018-01-02T00:27:04.882Z,91
2018-01-02T00:28:04.827Z,91
2018-01-02T00:29:04.890Z,91
2018-01-02T00:30:04.673Z,91
2018-01-02T00:31:02.842Z,91
2018-01-02T00:32:02.836Z,91
2018-01-02T00:33:04.906Z,91
2018-01-02T00:34:02.858Z,91
2018-01-02T00:35:02.871Z,90
2018-01-02T00:37:02.848Z,90
2018-01-02T00:38:03.113Z,90
2018-01-02T00:39:02.837Z,90
2018-01-02T00:40:02.902Z,90
2018-01-02T00:41:05.231Z,90
2018-01-02T00:42:05.288Z,90
2018-01-02T00:43:04.913Z,90
2018-01-02T00:44:02.931Z,90
2018-01-02T00:45:02.721Z,90
2018-01-02T00:46:02.935Z,90
2018-01-02T00:48:02.741Z,90
2018-01-02T00:49:02.846Z,90
2018-01-02T00:50:02.925Z,89
2018-01-02T00:51:02.849Z,89
2018-01-02T00:52:02.924Z,89
2018-01-02T00:53:03.159Z,89
2018-01-02T00:54:02.641Z,89
2018-01-02T00:55:02.721Z,89
2018-01-02T00:56:02.924Z,89
2018-01-02T00:57:03.174Z,89
2018-01-02T00:58:03.175Z,89
2018-01-02T00:59:02.715Z,89
2018-01-02T01:00:05.269Z,89
2018-01-02T01:01:03.164Z,89
2018-01-02T01:02:02.927Z,89
2018-01-02T01:03:02.722Z,89
2018-01-02T01:04:02.732Z,89
2018-01-02T01:05:03.189Z,89
2018-01-02T01:06:02.973Z,89
2018-01-02T01:07:02.918Z,89
2018-01-02T01:08:02.932Z,89
2018-01-02T01:09:02.724Z,89
2018-01-02T01:10:02.942Z,89
2018-01-02T01:11:02.729Z,89
2018-01-02T01:12:02.943Z,89
2018-01-02T01:13:02.904Z,89
2018-01-02T01:14:03.218Z,89
2018-01-02T01:15:02.957Z,89
2018-01-02T01:16:03.270Z,88
2018-01-02T01:17:02.720Z,88
2018-01-02T01:18:02.799Z,88
2018-01-02T01:19:03.000Z,88
2018-01-02T01:21:03.201Z,88
2018-01-02T01:22:02.801Z,88
2018-01-02T01:23:03.230Z,88
2018-01-02T01:24:02.937Z,88
2018-01-02T01:25:02.931Z,88
2018-01-02T01:26:07.967Z,88
2018-01-02T01:27:03.220Z,88
2018-01-02T01:28:02.789Z,88
2018-01-02T01:29:02.965Z,88
2018-01-02T01:31:02.959Z,88
2018-01-02T01:33:02.729Z,88
2018-01-02T01:34:03.219Z,88
2018-01-02T01:35:02.726Z,88
2018-01-02T01:36:02.764Z,88
2018-01-02T01:37:02.969Z,88
2018-01-02T01:38:02.927Z,88
2018-01-02T01:40:02.760Z,88
2018-01-02T01:41:03.226Z,88
2018-01-02T01:42:03.211Z,88
2018-01-02T01:44:02.995Z,88
2018-01-02T01:45:02.967Z,88
2018-01-02T01:46:03.171Z,88
2018-01-02T01:47:03.221Z,88
2018-01-02T01:48:02.987Z,88
2018-01-02T01:49:03.227Z,88
2018-01-02T01:50:02.978Z,88
2018-01-02T01:52:02.790Z,89
2018-01-02T01:53:02.806Z,89
2018-01-02T01:54:02.841Z,88
2018-01-02T01:55:03.295Z,88
2018-01-02T01:56:02.994Z,89
2018-01-02T01:57:03.263Z,89
2018-01-02T01:58:03.267Z,89
2018-01-02T01:59:03.341Z,89
2018-01-02T02:00:02.801Z,89
2018-01-02T02:02:03.258Z,89
2018-01-02T02:03:03.040Z,89
2018-01-02T02:04:03.277Z,89
2018-01-02T02:05:03.290Z,89
2018-01-02T02:06:03.314Z,89
2018-01-02T02:07:03.011Z,89
2018-01-02T02:08:02.832Z,89
2018-01-02T02:09:03.267Z,89
2018-01-02T02:10:03.080Z,89
2018-01-02T02:11:03.243Z,89
2018-01-02T02:12:03.277Z,89
2018-01-02T02:13:03.075Z,89
2018-01-02T02:14:03.054Z,89
2018-01-02T02:15:03.313Z,89
2018-01-02T02:16:03.104Z,89
2018-01-02T02:17:03.015Z,89
2018-01-02T02:18:03.021Z,89
2018-01-02T02:19:03.051Z,88
2018-01-02T02:21:03.042Z,88
2018-01-02T02:22:03.060Z,88
2018-01-02T02:24:02.835Z,88
2018-01-02T02:25:02.876Z,88
2018-01-02T02:27:03.078Z,88
2018-01-02T02:29:03.044Z,87
2018-01-02T02:30:03.136Z,87
2018-01-02T02:31:03.089Z,87
2018-01-02T02:32:03.105Z,87
2018-01-02T02:33:03.352Z,87
2018-01-02T02:34:03.341Z,87
2018-01-02T02:35:02.889Z,87
2018-01-02T02:36:03.063Z,87
2018-01-02T02:37:03.324Z,86
2018-01-02T02:38:03.371Z,86
2018-01-02T02:39:03.121Z,86
2018-01-02T02:40:03.333Z,86
2018-01-02T02:41:03.346Z,86
2018-01-02T02:42:02.879Z,85
2018-01-02T02:44:03.131Z,85
2018-01-02T02:45:03.111Z,85
2018-01-02T02:46:02.904Z,85
2018-01-02T02:47:02.863Z,85
2018-01-02T02:48:03.101Z,85
2018-01-02T02:49:03.917Z,85
2018-01-02T02:50:03.124Z,85
2018-01-02T02:51:03.102Z,85
2018-01-02T02:52:03.030Z,85
2018-01-02T02:53:03.055Z,85
2018-01-02T02:54:03.048Z,85
2018-01-02T02:55:03.144Z,84
2018-01-02T02:56:03.088Z,84
2018-01-02T02:57:03.344Z,84
2018-01-02T02:58:03.110Z,84
2018-01-02T02:59:02.876Z,84
2018-01-02T03:00:03.105Z,84
2018-01-02T03:01:03.419Z,84
2018-01-02T03:02:02.899Z,84
2018-01-02T03:03:03.371Z,84
2018-01-02T03:04:03.376Z,84
2018-01-02T03:05:02.976Z,84
2018-01-02T03:06:03.435Z,84
2018-01-02T03:07:03.160Z,84
2018-01-02T03:08:03.383Z,84
2018-01-02T03:09:02.867Z,84
2018-01-02T03:10:03.109Z,84
2018-01-02T03:11:03.084Z,84
2018-01-02T03:12:03.119Z,84
2018-01-02T03:13:02.903Z,84
2018-01-02T03:14:02.891Z,84
2018-01-02T03:15:03.397Z,84
2018-01-02T03:16:03.123Z,84
2018-01-02T03:17:03.127Z,84
2018-01-02T03:18:04.412Z,84
2018-01-02T03:19:03.110Z,84
2018-01-02T03:20:02.933Z,84
2018-01-02T03:21:03.127Z,84
2018-01-02T03:23:03.145Z,84
2018-01-02T03:24:03.423Z,84
2018-01-02T03:25:04.730Z,84
2018-01-02T03:26:03.165Z,84
2018-01-02T03:27:03.004Z,84
2018-01-02T03:28:03.144Z,85
2018-01-02T03:29:03.139Z,85
2018-01-02T03:30:03.231Z,85
2018-01-02T03:31:03.453Z,85
2018-01-02T03:32:03.127Z,85
2018-01-02T03:33:03.123Z,85
2018-01-02T03:34:02.929Z,85
2018-01-02T03:35:03.223Z,85
2018-01-02T03:36:03.153Z,85
2018-01-02T03:37:03.158Z,85
2018-01-02T03:38:03.105Z,85
2018-01-02T03:39:02.954Z,85
2018-01-02T03:40:03.480Z,85
2018-01-02T03:41:03.174Z,85
2018-01-02T03:42:03.439Z,85
2018-01-02T03:43:03.226Z,85
2018-01-02T03:44:03.441Z,85
2018-01-02T03:45:03.178Z,85
2018-01-02T03:46:03.212Z,85
2018-01-02T03:47:03.302Z,85
2018-01-02T03:48:03.036Z,85
2018-01-02T03:49:03.200Z,85
2018-01-02T03:50:03.430Z,85
2018-01-02T03:51:03.161Z,85
2018-01-02T03:52:03.227Z,85
2018-01-02T03:53:03.202Z,85
2018-01-02T03:54:03.463Z,85
2018-01-02T03:55:03.220Z,85
2018-01-02T03:56:03.210Z,85
2018-01-02T03:57:03.202Z,85
2018-01-02T03:58:03.023Z,85
2018-01-02T03:59:03.219Z,85
2018-01-02T04:00:03.178Z,85
2018-01-02T04:01:03.219Z,85
2018-01-02T04:02:02.982Z,85
2018-01-02T04:03:03.207Z,85
2018-01-02T04:04:03.518Z,85
2018-01-02T04:05:03.477Z,85
2018-01-02T04:06:03.474Z,85
2018-01-02T04:07:03.018Z,85
2018-01-02T04:08:03.228Z,85
2018-01-02T04:10:03.080Z,85
2018-01-02T04:11:03.224Z,85
2018-01-02T04:12:03.250Z,85
2018-01-02T04:13:03.207Z,85
2018-01-02T04:14:03.217Z,85
2018-01-02T04:15:03.015Z,85
2018-01-02T04:16:03.312Z,85
2018-01-02T04:17:03.201Z,85
2018-01-02T04:18:03.242Z,85
2018-01-02T04:19:03.272Z,85
2018-01-02T04:20:03.079Z,85
2018-01-02T04:21:03.261Z,85
2018-01-02T04:22:03.290Z,85
2018-01-02T04:23:03.212Z,85
2018-01-02T04:24:03.251Z,85
2018-01-02T04:25:03.055Z,85
2018-01-02T04:26:03.230Z,85
2018-01-02T04:27:03.515Z,85
2018-01-02T04:28:03.276Z,85
2018-01-02T04:30:03.015Z,85
2018-01-02T04:31:03.275Z,85
2018-01-02T04:32:03.256Z,85
2018-01-02T04:33:03.105Z,85
2018-01-02T04:34:03.587Z,85
2018-01-02T04:35:03.290Z,85
2018-01-02T04:36:03.089Z,85
2018-01-02T04:37:03.286Z,85
2018-01-02T04:38:03.541Z,85
2018-01-02T04:39:03.342Z,85
2018-01-02T04:40:03.278Z,85
2018-01-02T04:41:03.320Z,85
2018-01-02T04:42:03.121Z,85
2018-01-02T04:43:03.305Z,85
2018-01-02T04:44:03.283Z,85
2018-01-02T04:45:03.322Z,85
2018-01-02T04:46:03.544Z,85
2018-01-02T04:47:03.298Z,85
2018-01-02T04:48:03.555Z,85
2018-01-02T04:49:03.649Z,85
2018-01-02T04:50:03.653Z,85
2018-01-02T04:51:03.299Z,85
2018-01-02T04:52:03.536Z,85
2018-01-02T04:53:03.540Z,85
2018-01-02T04:54:03.260Z,84
2018-01-02T04:55:03.571Z,84
2018-01-02T04:56:03.408Z,84
2018-01-02T04:57:03.299Z,84
2018-01-02T04:58:03.331Z,84
2018-01-02T04:59:03.551Z,84
2018-01-02T05:00:03.337Z,84
2018-01-02T05:01:03.353Z,84
2018-01-02T05:02:03.297Z,84
2018-01-02T05:03:03.319Z,84
2018-01-02T05:04:03.042Z,84
2018-01-02T05:05:03.289Z,84
2018-01-02T05:06:03.328Z,84
2018-01-02T05:07:03.116Z,85
2018-01-02T05:08:03.237Z,85
2018-01-02T05:09:03.284Z,86
2018-01-02T05:10:03.356Z,86
2018-01-02T05:11:03.151Z,86
2018-01-02T05:12:03.385Z,87
2018-01-02T05:13:03.375Z,87
2018-01-02T05:14:03.140Z,87
2018-01-02T05:15:03.389Z,87
2018-01-02T05:16:03.151Z,87
2018-01-02T05:17:03.343Z,88
2018-01-02T05:18:03.792Z,88
2018-01-02T05:19:03.633Z,88
2018-01-02T05:20:03.595Z,87
2018-01-02T05:21:03.121Z,87
2018-01-02T05:22:03.345Z,88
2018-01-02T05:23:03.624Z,88
2018-01-02T05:24:03.391Z,88
2018-01-02T05:25:03.372Z,88
2018-01-02T05:27:03.363Z,88
2018-01-02T05:28:03.370Z,88
2018-01-02T05:29:03.424Z,88
2018-01-02T05:30:03.617Z,89
2018-01-02T05:31:03.179Z,89
2018-01-02T05:32:03.394Z,89
2018-01-02T05:33:03.739Z,89
2018-01-02T05:34:03.445Z,89
2018-01-02T05:35:03.385Z,89
2018-01-02T05:36:03.241Z,89
2018-01-02T05:37:03.683Z,89
2018-01-02T05:38:03.722Z,89
2018-01-02T05:39:03.635Z,89
2018-01-02T05:40:03.376Z,89
2018-01-02T05:41:03.169Z,89
2018-01-02T05:42:03.644Z,89
2018-01-02T05:43:03.627Z,89
2018-01-02T05:44:03.390Z,89
2018-01-02T05:45:03.395Z,89
2018-01-02T05:46:03.334Z,89
2018-01-02T05:47:03.181Z,89
2018-01-02T05:48:03.391Z,89
2018-01-02T05:49:03.683Z,89
2018-01-02T05:50:03.700Z,90
2018-01-02T05:51:03.639Z,90
2018-01-02T05:52:03.667Z,90
2018-01-02T05:53:03.431Z,90
2018-01-02T05:54:03.398Z,90
2018-01-02T05:55:03.467Z,90
2018-01-02T05:56:03.420Z,90
2018-01-02T05:57:03.400Z,90
2018-01-02T05:58:03.454Z,91
2018-01-02T05:59:03.208Z,91
2018-01-02T06:00:03.738Z,91
2018-01-02T06:01:03.218Z,91
2018-01-02T06:02:03.407Z,91
2018-01-02T06:03:03.202Z,91
2018-01-02T06:04:03.214Z,91
2018-01-02T06:05:03.221Z,91
2018-01-02T06:06:03.744Z,91
2018-01-02T06:07:03.231Z,91
2018-01-02T06:09:03.456Z,91
2018-01-02T06:10:03.487Z,92
2018-01-02T06:11:03.204Z,92
2018-01-02T06:12:03.743Z,92
2018-01-02T06:13:03.677Z,92
2018-01-02T06:14:03.815Z,92
2018-01-02T06:15:03.474Z,92
2018-01-02T06:16:03.765Z,92
2018-01-02T06:17:03.843Z,92
2018-01-02T06:18:03.787Z,92
2018-01-02T06:19:04.262Z,92
2018-01-02T06:20:03.313Z,92
2018-01-02T06:21:03.362Z,92
2018-01-02T06:22:04.049Z,92
2018-01-02T06:23:03.902Z,93
2018-01-02T06:24:03.444Z,93
2018-01-02T06:25:04.539Z,93
2018-01-02T06:26:03.819Z,93
2018-01-02T06:27:03.538Z,93
2018-01-02T06:28:03.534Z,93
2018-01-02T06:29:03.794Z,93
2018-01-02T06:30:03.541Z,93
2018-01-02T06:31:03.549Z,93
2018-01-02T06:32:03.358Z,93
2018-01-02T06:33:03.538Z,93
2018-01-02T06:34:03.535Z,93
2018-01-02T06:35:03.836Z,93
2018-01-02T06:36:03.871Z,93
2018-01-02T06:37:03.846Z,93
2018-01-02T06:38:03.514Z,93
2018-01-02T06:39:03.539Z,93
2018-01-02T06:40:03.343Z,93
2018-01-02T06:41:03.324Z,93
2018-01-02T06:42:03.371Z,93
2018-01-02T06:43:03.593Z,93
2018-01-02T06:44:03.332Z,93
2018-01-02T06:45:03.388Z,93
2018-01-02T06:46:03.362Z,93
2018-01-02T06:47:03.508Z,93
2018-01-02T06:48:03.376Z,93
2018-01-02T06:49:05.038Z,93
2018-01-02T06:50:03.371Z,93
2018-01-02T06:51:03.634Z,93
2018-01-02T06:52:03.435Z,93
2018-01-02T06:53:03.946Z,93
2018-01-02T06:54:03.546Z,93
2018-01-02T06:55:03.455Z,93
2018-01-02T06:56:03.879Z,93
2018-01-02T06:57:03.888Z,93
2018-01-02T06:58:03.583Z,93
2018-01-02T06:59:03.875Z,93
2018-01-02T07:00:03.871Z,93
2018-01-02T07:01:03.657Z,93
2018-01-02T07:02:03.573Z,93
2018-01-02T07:03:03.630Z,93
2018-01-02T07:04:03.449Z,93
2018-01-02T07:05:03.873Z,93
2018-01-02T07:06:03.591Z,93
2018-01-02T07:07:03.896Z,93
2018-01-02T07:08:03.379Z,93
2018-01-02T07:09:03.998Z,93
2018-01-02T07:10:03.680Z,93
2018-01-02T07:11:03.461Z,93
2018-01-02T07:12:03.400Z,93
2018-01-02T07:13:03.631Z,93
2018-01-02T07:14:03.445Z,93
2018-01-02T07:15:03.518Z,93
2018-01-02T07:16:03.674Z,93
2018-01-02T07:17:03.688Z,93
2018-01-02T07:18:03.407Z,93
2018-01-02T07:19:03.593Z,93
2018-01-02T07:20:04.128Z,93
2018-01-02T07:21:04.009Z,93
2018-01-02T07:22:03.366Z,93
2018-01-02T07:23:03.650Z,93
2018-01-02T07:24:03.744Z,92
2018-01-02T07:25:03.696Z,92
2018-01-02T07:26:03.868Z,92
2018-01-02T07:27:03.689Z,92
2018-01-02T07:29:03.468Z,92
2018-01-02T07:30:03.593Z,92
2018-01-02T07:31:03.645Z,92
2018-01-02T07:32:03.654Z,92
2018-01-02T07:33:04.187Z,92
2018-01-02T07:34:03.918Z,92
2018-01-02T07:35:03.704Z,92
2018-01-02T07:36:04.344Z,92
2018-01-02T07:37:03.911Z,92
2018-01-02T07:38:03.652Z,92
2018-01-02T07:40:03.451Z,92
2018-01-02T07:42:03.620Z,92
2018-01-02T07:44:03.518Z,92
2018-01-02T07:45:03.962Z,92
2018-01-02T07:46:03.680Z,92
2018-01-02T07:47:03.635Z,92
2018-01-02T07:48:03.426Z,92
2018-01-02T07:49:04.022Z,92
2018-01-02T07:50:03.618Z,92
2018-01-02T07:51:03.444Z,92
2018-01-02T07:52:03.651Z,91
2018-01-02T07:53:03.714Z,91
2018-01-02T07:54:03.563Z,91
2018-01-02T07:55:03.506Z,91
2018-01-02T07:56:03.488Z,91
2018-01-02T07:58:03.684Z,92
2018-01-02T07:59:03.538Z,92
2018-01-02T08:00:03.786Z,91
2018-01-02T08:01:03.745Z,91
2018-01-02T08:02:04.016Z,92
2018-01-02T08:03:03.531Z,92
2018-01-02T08:04:03.969Z,92
2018-01-02T08:05:03.544Z,92
2018-01-02T08:06:03.997Z,92
2018-01-02T08:07:03.506Z,92
2018-01-02T08:08:03.440Z,92
2018-01-02T08:09:03.720Z,92
2018-01-02T08:10:03.954Z,92
2018-01-02T08:11:03.989Z,92
2018-01-02T08:12:04.030Z,92
2018-01-02T08:13:03.699Z,92
2018-01-02T08:14:03.698Z,92
2018-01-02T08:15:03.503Z,92
2018-01-02T08:16:04.035Z,92
2018-01-02T08:17:03.742Z,92
2018-01-02T08:18:03.716Z,92
2018-01-02T08:19:03.707Z,92
2018-01-02T08:20:03.673Z,92
2018-01-02T08:21:03.722Z,92
2018-01-02T08:22:03.742Z,92
2018-01-02T08:23:03.714Z,92
2018-01-02T08:24:03.518Z,92
2018-01-02T08:25:03.586Z,92
2018-01-02T08:26:03.991Z,92
2018-01-02T08:27:04.048Z,92
2018-01-02T08:28:03.797Z,92
2018-01-02T08:29:03.746Z,92
2018-01-02T08:30:03.783Z,93
2018-01-02T08:31:03.756Z,93
2018-01-02T08:32:04.032Z,93
2018-01-02T08:33:03.782Z,93
2018-01-02T08:34:03.571Z,93
2018-01-02T08:35:04.068Z,93
2018-01-02T08:36:03.540Z,93
2018-01-02T08:37:04.492Z,93
2018-01-02T08:38:03.653Z,93
2018-01-02T08:39:04.026Z,93
2018-01-02T08:40:03.610Z,93
2018-01-02T08:41:03.845Z,93
2018-01-02T08:42:03.778Z,93
2018-01-02T08:43:04.062Z,93
2018-01-02T08:44:04.057Z,93
2018-01-02T08:45:03.596Z,93
2018-01-02T08:46:03.761Z,93
2018-01-02T08:47:03.739Z,93
2018-01-02T08:48:03.749Z,93
2018-01-02T08:49:03.626Z,93
2018-01-02T08:50:04.054Z,93
2018-01-02T08:51:04.067Z,93
2018-01-02T08:53:04.071Z,93
2018-01-02T08:54:03.763Z,93
2018-01-02T08:55:03.796Z,93
2018-01-02T08:56:03.824Z,93
2018-01-02T08:57:04.083Z,93
2018-01-02T08:58:03.797Z,93
2018-01-02T08:59:04.110Z,93
2018-01-02T09:00:03.678Z,93
2018-01-02T09:01:04.082Z,93
2018-01-02T09:02:04.053Z,93
2018-01-02T09:03:03.765Z,92
2018-01-02T09:04:03.620Z,92
2018-01-02T09:05:04.135Z,92
2018-01-02T09:06:03.607Z,92
2018-01-02T09:07:04.119Z,92
2018-01-02T09:08:03.852Z,92
2018-01-02T09:09:03.826Z,92
2018-01-02T09:10:03.861Z,92
2018-01-02T09:11:03.639Z,92
2018-01-02T09:12:03.601Z,92
2018-01-02T09:13:04.121Z,92
2018-01-02T09:14:04.148Z,92
2018-01-02T09:15:03.917Z,92
2018-01-02T09:16:04.147Z,92
2018-01-02T09:17:03.855Z,92
2018-01-02T09:18:03.628Z,92
2018-01-02T09:19:03.621Z,92
2018-01-02T09:20:04.153Z,92
2018-01-02T09:21:04.269Z,92
2018-01-02T09:22:04.140Z,92
2018-01-02T09:24:03.856Z,91
2018-01-02T09:25:03.697Z,91
2018-01-02T09:27:03.861Z,92
2018-01-02T09:28:04.151Z,92
2018-01-02T09:29:03.838Z,92
2018-01-02T09:30:03.728Z,92
2018-01-02T09:31:03.849Z,92
2018-01-02T09:32:03.723Z,92
2018-01-02T09:33:03.856Z,92
2018-01-02T09:34:03.811Z,92
2018-01-02T09:35:03.652Z,92
2018-01-02T09:36:04.793Z,92
2018-01-02T09:37:03.730Z,92
2018-01-02T09:38:04.379Z,92
2018-01-02T09:39:03.888Z,92
2018-01-02T09:40:03.907Z,92
2018-01-02T09:41:04.173Z,92
2018-01-02T09:42:04.167Z,92
2018-01-02T09:43:03.711Z,92
2018-01-02T09:44:03.898Z,91
2018-01-02T09:45:03.922Z,91
2018-01-02T09:47:03.677Z,91
2018-01-02T09:48:03.936Z,91
2018-01-02T09:49:03.918Z,92
2018-01-02T09:51:04.176Z,92
2018-01-02T09:52:04.234Z,91
2018-01-02T09:53:03.933Z,91
2018-01-02T09:54:03.890Z,91
2018-01-02T09:56:04.214Z,91
2018-01-02T09:57:03.890Z,91
2018-01-02T09:58:04.254Z,91
2018-01-02T09:59:03.709Z,91
2018-01-02T10:00:04.188Z,91
2018-01-02T10:01:04.188Z,91
2018-01-02T10:02:04.182Z,91
2018-01-02T10:03:03.921Z,91
2018-01-02T10:04:03.886Z,91
2018-01-02T10:05:03.731Z,91
2018-01-02T10:06:04.439Z,91
2018-01-02T10:07:03.702Z,91
2018-01-02T10:08:04.144Z,91
2018-01-02T10:09:04.174Z,91
2018-01-02T10:10:04.212Z,91
2018-01-02T10:11:04.182Z,91
2018-01-02T10:12:04.155Z,91
2018-01-02T10:13:03.939Z,91
2018-01-02T10:14:04.006Z,91
2018-01-02T10:15:03.926Z,91
2018-01-02T10:16:03.680Z,91
2018-01-02T10:17:03.896Z,91
2018-01-02T10:18:03.831Z,91
2018-01-02T10:19:04.537Z,91
2018-01-02T10:20:03.749Z,90
2018-01-02T10:21:03.973Z,90
2018-01-02T10:22:03.902Z,90
2018-01-02T10:23:03.759Z,90
2018-01-02T10:24:03.949Z,90
2018-01-02T10:25:04.256Z,89
2018-01-02T10:26:04.380Z,89
2018-01-02T10:27:03.733Z,89
2018-01-02T10:29:04.026Z,89
2018-01-02T10:30:03.849Z,89
2018-01-02T10:31:03.812Z,89
2018-01-02T10:32:04.231Z,89
2018-01-02T10:33:03.999Z,89
2018-01-02T10:34:04.013Z,89
2018-01-02T10:35:04.006Z,88
2018-01-02T10:36:03.883Z,88
2018-01-02T10:37:04.305Z,88
2018-01-02T10:38:03.814Z,88
2018-01-02T10:39:04.010Z,88
2018-01-02T10:40:04.765Z,89
2018-01-02T10:41:03.864Z,89
2018-01-02T10:42:04.022Z,88
2018-01-02T10:43:03.947Z,88
2018-01-02T10:44:04.227Z,88
2018-01-02T10:45:03.841Z,88
2018-01-02T10:46:03.999Z,88
2018-01-02T10:47:03.971Z,89
2018-01-02T10:48:04.261Z,89
2018-01-02T10:49:03.993Z,89
2018-01-02T10:50:04.033Z,88
2018-01-02T10:51:03.895Z,88
2018-01-02T10:52:04.274Z,88
2018-01-02T10:53:04.021Z,88
2018-01-02T10:54:04.300Z,88
2018-01-02T10:55:04.112Z,88
2018-01-02T10:56:04.328Z,88
2018-01-02T10:57:04.066Z,88
2018-01-02T10:58:04.084Z,88
2018-01-02T10:59:04.032Z,88
2018-01-02T11:00:03.839Z,88
2018-01-02T11:01:04.286Z,88
2018-01-02T11:02:03.812Z,88
2018-01-02T11:03:04.347Z,88
2018-01-02T11:04:03.780Z,88
2018-01-02T11:05:04.024Z,88
2018-01-02T11:06:04.358Z,88
2018-01-02T11:07:04.000Z,88
2018-01-02T11:08:04.093Z,88
2018-01-02T11:09:04.069Z,88
2018-01-02T11:10:04.041Z,88
2018-01-02T11:11:04.076Z,88
2018-01-02T11:12:04.120Z,88
2018-01-02T11:13:03.879Z,88
2018-01-02T11:14:04.364Z,88
2018-01-02T11:15:04.093Z,87
2018-01-02T11:16:03.878Z,87
2018-01-02T11:17:04.366Z,87
2018-01-02T11:18:04.397Z,87
2018-01-02T11:19:03.867Z,87
2018-01-02T11:20:04.425Z,87
2018-01-02T11:21:04.077Z,87
2018-01-02T11:22:04.986Z,87
2018-01-02T11:23:04.088Z,86
2018-01-02T11:25:04.352Z,86
2018-01-02T11:26:04.391Z,86
2018-01-02T11:27:04.074Z,86
2018-01-02T11:28:04.178Z,85
2018-01-02T11:29:03.881Z,85
2018-01-02T11:31:03.905Z,85
2018-01-02T11:32:04.029Z,85
2018-01-02T11:33:04.106Z,85
2018-01-02T11:34:03.955Z,85
2018-01-02T11:35:04.102Z,85
2018-01-02T11:36:04.181Z,85
2018-01-02T11:37:04.103Z,85
2018-01-02T11:38:04.341Z,85
2018-01-02T11:39:04.377Z,85
2018-01-02T11:40:04.306Z,85
2018-01-02T11:43:04.219Z,85
2018-01-02T11:44:03.951Z,85
2018-01-02T11:45:04.166Z,85
2018-01-02T11:46:04.168Z,85
2018-01-02T11:47:03.937Z,85
2018-01-02T11:48:04.238Z,84
2018-01-02T11:49:04.380Z,84
2018-01-02T11:50:03.970Z,84
2018-01-02T11:51:04.021Z,84
2018-01-02T11:52:04.416Z,84
2018-01-02T11:53:04.173Z,84
2018-01-02T11:54:03.984Z,84
2018-01-02T11:55:04.148Z,84
2018-01-02T11:56:04.192Z,84
2018-01-02T11:57:04.105Z,84
2018-01-02T11:58:04.391Z,84
2018-01-02T11:59:04.071Z,84
2018-01-02T12:00:04.412Z,84
2018-01-02T12:01:04.428Z,84
2018-01-02T12:02:04.159Z,84
2018-01-02T12:03:03.907Z,84
2018-01-02T12:04:04.164Z,84
2018-01-02T12:05:04.487Z,84
2018-01-02T12:06:04.478Z,83
2018-01-02T12:07:04.136Z,83
2018-01-02T12:08:04.140Z,83
2018-01-02T12:09:04.426Z,83
2018-01-02T12:10:04.201Z,83
2018-01-02T12:11:03.991Z,82
2018-01-02T12:12:04.114Z,82
2018-01-02T12:13:04.187Z,82
2018-01-02T12:14:04.514Z,82
2018-01-02T12:16:04.202Z,82
2018-01-02T12:17:03.965Z,82
2018-01-02T12:18:04.465Z,82
2018-01-02T12:19:04.523Z,82
2018-01-02T12:20:04.209Z,82
2018-01-02T12:21:04.183Z,82
2018-01-02T12:22:04.217Z,82
2018-01-02T12:23:04.127Z,82
2018-01-02T12:24:04.467Z,81
2018-01-02T12:25:04.460Z,81
2018-01-02T12:26:03.985Z,81
2018-01-02T12:27:04.200Z,81
2018-01-02T12:28:04.164Z,81
2018-01-02T12:30:04.207Z,81
2018-01-02T12:31:04.162Z,81
2018-01-02T12:33:04.188Z,81
2018-01-02T12:34:04.175Z,80
2018-01-02T12:35:04.191Z,80
2018-01-02T12:36:04.471Z,80
2018-01-02T12:37:04.196Z,81
2018-01-02T12:38:04.180Z,81
2018-01-02T12:39:04.553Z,81
2018-01-02T12:40:04.517Z,81
2018-01-02T12:41:04.206Z,81
2018-01-02T12:43:04.191Z,81
2018-01-02T12:44:04.146Z,81
2018-01-02T12:45:04.239Z,81
2018-01-02T12:46:04.522Z,81
2018-01-02T12:47:04.056Z,80
2018-01-02T12:48:04.833Z,80
2018-01-02T12:49:04.339Z,80
2018-01-02T12:50:04.365Z,80
2018-01-02T12:51:04.352Z,80
2018-01-02T12:52:04.392Z,80
2018-01-02T12:53:04.329Z,80
2018-01-02T12:54:04.623Z,80
2018-01-02T12:55:04.313Z,80
2018-01-02T12:56:04.366Z,80
2018-01-02T12:57:04.334Z,80
2018-01-02T12:58:04.569Z,80
2018-01-02T13:00:04.359Z,80
2018-01-02T13:01:04.394Z,80
2018-01-02T13:02:04.710Z,79
2018-01-02T13:03:04.662Z,79
2018-01-02T13:04:04.624Z,79
2018-01-02T13:05:04.316Z,79
2018-01-02T13:06:04.572Z,79
2018-01-02T13:07:04.417Z,79
2018-01-02T13:08:04.394Z,79
2018-01-02T13:09:04.629Z,79
2018-01-02T13:10:04.465Z,79
2018-01-02T13:11:04.464Z,79
2018-01-02T13:12:04.442Z,79
2018-01-02T13:13:04.390Z,79
2018-01-02T13:14:04.393Z,79
2018-01-02T13:15:04.219Z,79
2018-01-02T13:16:04.669Z,79
2018-01-02T13:18:04.323Z,79
2018-01-02T13:20:04.443Z,78
2018-01-02T13:22:04.345Z,78
2018-01-02T13:23:04.184Z,78
2018-01-02T13:24:04.148Z,78
2018-01-02T13:25:04.400Z,78
2018-01-02T13:26:04.639Z,78
2018-01-02T13:27:04.344Z,78
2018-01-02T13:28:04.597Z,78
2018-01-02T13:29:04.329Z,78
2018-01-02T13:30:04.238Z,79
2018-01-02T13:31:04.312Z,79
2018-01-02T13:32:04.315Z,79
2018-01-02T13:33:04.275Z,78
2018-01-02T13:34:04.071Z,78
2018-01-02T13:36:04.250Z,79
2018-01-02T13:37:04.240Z,79
2018-01-02T13:38:04.083Z,80
2018-01-02T13:39:04.609Z,80
2018-01-02T13:40:04.330Z,80
2018-01-02T13:41:04.282Z,80
2018-01-02T13:43:05.181Z,80
2018-01-02T13:44:04.534Z,80
2018-01-02T13:45:04.286Z,80
2018-01-02T13:49:04.289Z,80
2018-01-02T13:50:04.318Z,80
2018-01-02T13:51:04.575Z,80
2018-01-02T13:52:04.291Z,80
2018-01-02T13:53:04.320Z,80
2018-01-02T13:54:04.302Z,80
2018-01-02T13:55:04.334Z,80
2018-01-02T13:56:04.175Z,80
2018-01-02T13:57:04.584Z,80
2018-01-02T13:58:04.338Z,80
2018-01-02T13:59:04.335Z,80
2018-01-02T14:01:04.326Z,80
2018-01-02T14:02:04.182Z,80
2018-01-02T14:03:04.137Z,80
2018-01-02T14:04:04.399Z,80
2018-01-02T14:05:04.224Z,80
2018-01-02T14:06:04.607Z,80
2018-01-02T14:07:04.329Z,80
2018-01-02T14:08:04.172Z,81
2018-01-02T14:09:04.132Z,81
2018-01-02T14:10:04.343Z,81
2018-01-02T14:11:04.413Z,81
2018-01-02T14:12:04.600Z,81
2018-01-02T14:13:04.362Z,81
2018-01-02T14:14:04.344Z,81
2018-01-02T14:15:04.638Z,81
2018-01-02T14:16:04.695Z,81
2018-01-02T14:17:04.389Z,81
2018-01-02T14:19:04.824Z,80
2018-01-02T14:20:04.672Z,80
2018-01-02T14:21:04.211Z,80
2018-01-02T14:23:04.388Z,80
2018-01-02T14:24:04.717Z,81
2018-01-02T14:25:04.371Z,81
2018-01-02T14:26:04.674Z,81
2018-01-02T14:27:04.638Z,81
2018-01-02T14:28:04.204Z,81
2018-01-02T14:29:04.399Z,82
2018-01-02T14:30:04.349Z,82
2018-01-02T14:31:04.212Z,83
2018-01-02T14:32:04.393Z,83
2018-01-02T14:33:04.719Z,83
2018-01-02T14:34:04.721Z,83
2018-01-02T14:35:04.402Z,83
2018-01-02T14:36:04.204Z,83
2018-01-02T14:37:04.671Z,83
2018-01-02T14:38:04.403Z,83
2018-01-02T14:39:04.430Z,83
2018-01-02T14:40:04.425Z,83
2018-01-02T14:41:04.425Z,84
2018-01-02T14:42:04.433Z,84
2018-01-02T14:43:04.246Z,84
2018-01-02T14:44:04.458Z,84
2018-01-02T14:45:04.447Z,84
2018-01-02T14:46:04.407Z,84
2018-01-02T14:47:04.207Z,84
2018-01-02T14:48:04.497Z,84
2018-01-02T14:49:04.479Z,84
2018-01-02T14:50:05.176Z,84
2018-01-02T14:51:04.251Z,84
2018-01-02T14:52:04.396Z,84
2018-01-02T14:53:04.430Z,84
2018-01-02T14:54:04.501Z,85
2018-01-02T14:55:04.437Z,85
2018-01-02T14:56:04.442Z,85
2018-01-02T14:57:04.453Z,85
2018-01-02T14:58:04.263Z,85
2018-01-02T14:59:04.253Z,85
2018-01-02T15:00:04.290Z,85
2018-01-02T15:01:04.307Z,85
2018-01-02T15:02:04.728Z,85
2018-01-02T15:03:04.701Z,85
2018-01-02T15:04:04.330Z,86
2018-01-02T15:05:04.714Z,86
2018-01-02T15:06:04.450Z,86